Time;durP1;ratioP1;P1;durP2;ratioP2;P2;SDS_P1;SDS_P2;PMS_P1;PMS_P2;Temp;Humidity;BMP_temperature;BMP_pressure;BME280_temperature;BME280_humidity;BME280_pressure;Samples;Min_cycle;Max_cycle;Signal;HPM_P1;HPM_P2
2023/12/17 00:01:12;;;;;;;7.70;3.50;;;;;;;-5.02;84.17;97654.30;110320;1277;22159;-82
2023/12/17 00:03:41;;;;;;;8.10;3.70;;;;;;;-4.99;84.28;97655.23;110343;1277;22161;-83
2023/12/17 00:06:09;;;;;;;2.90;1.30;;;;;;;-4.99;83.56;97657.47;110359;1277;22139;-82
2023/12/17 00:08:37;;;;;;;2.00;1.30;;;;;;;-4.98;83.58;97661.31;110319;1277;22908;-82
2023/12/17 00:11:06;;;;;;;4.00;3.10;;;;;;;-4.98;83.34;97658.02;110344;1277;22110;-82
2023/12/17 00:13:35;;;;;;;3.90;3.20;;;;;;;-5.02;83.45;97656.89;110342;1277;22128;-82
2023/12/17 00:16:04;;;;;;;2.00;1.50;;;;;;;-5.05;83.07;97657.35;110181;1277;22775;-82
2023/12/17 00:18:33;;;;;;;1.70;1.00;;;;;;;-5.06;83.51;97659.52;110371;1277;22218;-82
2023/12/17 00:21:03;;;;;;;1.40;0.70;;;;;;;-5.04;83.42;97656.55;110307;1277;22185;-83
2023/12/17 00:23:31;;;;;;;2.40;1.00;;;;;;;-5.01;83.90;97652.36;110353;1277;22117;-82
2023/12/17 00:25:59;;;;;;;2.20;1.00;;;;;;;-4.96;83.65;97655.57;110345;1277;22096;-82
2023/12/17 00:28:27;;;;;;;13.10;8.60;;;;;;;-4.97;83.39;97647.30;110351;1277;22297;-83
2023/12/17 00:30:55;;;;;;;18.50;10.20;;;;;;;-5.01;83.18;97649.27;110335;1277;22154;-82
2023/12/17 00:33:23;;;;;;;13.80;7.90;;;;;;;-5.03;83.37;97648.60;110134;1277;22133;-83
2023/12/17 00:35:52;;;;;;;6.00;2.80;;;;;;;-4.96;83.91;97646.48;110372;1277;22166;-82
2023/12/17 00:38:20;;;;;;;2.80;1.30;;;;;;;-4.92;83.87;97647.52;110351;1277;22144;-82
2023/12/17 00:40:48;;;;;;;3.80;1.30;;;;;;;-4.84;84.19;97642.08;110361;1277;22799;-82
2023/12/17 00:43:17;;;;;;;1.50;0.70;;;;;;;-4.80;84.03;97646.48;110289;1277;22132;-82
2023/12/17 00:45:45;;;;;;;2.20;1.70;;;;;;;-4.76;83.79;97643.87;110345;1277;22195;-82
2023/12/17 00:48:13;;;;;;;4.40;1.90;;;;;;;-4.82;83.13;97636.04;110350;1277;22108;-82
2023/12/17 00:50:41;;;;;;;3.50;1.70;;;;;;;-4.89;83.03;97631.60;110339;1277;22193;-82
2023/12/17 00:53:10;;;;;;;2.80;1.10;;;;;;;-4.93;82.94;97637.61;110366;1277;22872;-82
2023/12/17 00:55:38;;;;;;;2.70;1.00;;;;;;;-4.97;82.99;97636.81;110348;1277;22133;-82
2023/12/17 00:58:06;;;;;;;19.20;7.00;;;;;;;-5.05;82.85;97643.11;110342;1277;22835;-82
2023/12/17 01:00:34;;;;;;;23.30;9.10;;;;;;;-5.16;82.88;97648.24;110371;1261;22168;-82
2023/12/17 01:03:16;;;;;;;19.00;7.50;;;;;;;-5.28;82.75;97656.71;110384;1277;22122;-82
2023/12/17 01:05:44;;;;;;;3.10;1.50;;;;;;;-5.34;82.92;97655.23;110344;1277;22142;-82
2023/12/17 01:08:12;;;;;;;2.50;1.30;;;;;;;-5.34;83.09;97653.48;110362;1277;22107;-82
2023/12/17 01:10:41;;;;;;;20.70;5.50;;;;;;;-5.38;83.56;97648.86;110331;1277;22140;-83
2023/12/17 01:13:09;;;;;;;20.50;5.60;;;;;;;-5.44;83.52;97650.13;110355;1277;22878;-82
2023/12/17 01:15:37;;;;;;;5.30;2.40;;;;;;;-5.51;83.61;97649.60;110357;1277;22858;-82
2023/12/17 01:18:06;;;;;;;3.00;1.30;;;;;;;-5.51;83.65;97652.20;110340;1277;22739;-82
2023/12/17 01:20:35;;;;;;;1.60;1.10;;;;;;;-5.47;83.72;97652.34;110355;1277;22135;-82
2023/12/17 01:23:03;;;;;;;2.60;0.90;;;;;;;-5.44;83.78;97649.29;110354;1277;22106;-82
2023/12/17 01:25:31;;;;;;;3.10;0.90;;;;;;;-5.45;83.87;97648.73;110340;1277;22156;-82
2023/12/17 01:27:59;;;;;;;14.20;6.10;;;;;;;-5.46;83.84;97653.07;110372;1277;22263;-82
2023/12/17 01:30:28;;;;;;;23.10;9.90;;;;;;;-5.51;83.76;97656.49;110361;1277;22136;-82
2023/12/17 01:32:56;;;;;;;16.00;6.90;;;;;;;-5.59;83.82;97656.04;110380;1277;22190;-82
2023/12/17 01:35:24;;;;;;;17.70;6.60;;;;;;;-5.65;83.93;97659.71;110187;1277;22191;-82
2023/12/17 01:37:52;;;;;;;63.60;20.10;;;;;;;-5.67;84.63;97667.11;110367;1277;22155;-82
2023/12/17 01:40:21;;;;;;;59.60;19.90;;;;;;;-5.72;84.66;97671.52;110347;1277;22761;-82
2023/12/17 01:42:52;;;;;;;11.60;4.90;;;;;;;-5.79;84.91;97679.33;110358;1277;22187;-82
2023/12/17 01:45:20;;;;;;;12.10;4.20;;;;;;;-5.79;85.06;97679.38;110368;1277;22769;-82
2023/12/17 01:47:49;;;;;;;7.30;2.60;;;;;;;-5.78;85.00;97676.33;110371;1277;22815;-82
2023/12/17 01:50:17;;;;;;;8.10;3.10;;;;;;;-5.76;84.66;97675.82;110305;1277;22958;-82
2023/12/17 01:52:46;;;;;;;14.90;6.20;;;;;;;-5.76;84.41;97672.20;110353;1277;23047;-82
2023/12/17 01:55:14;;;;;;;40.40;16.70;;;;;;;-5.79;84.54;97667.70;110303;1277;22146;-82
2023/12/17 01:57:43;;;;;;;42.90;17.60;;;;;;;-5.85;84.88;97667.40;110319;1277;22153;-82
2023/12/17 02:00:12;;;;;;;50.50;20.10;;;;;;;-5.89;84.98;97662.64;110226;1277;22676;-82
2023/12/17 02:02:40;;;;;;;46.80;18.50;;;;;;;-5.89;85.22;97657.52;110364;1277;22205;-82
2023/12/17 02:05:08;;;;;;;36.60;15.80;;;;;;;-5.85;85.32;97648.70;110366;1277;22145;-82
2023/12/17 02:07:40;;;;;;;33.90;13.70;;;;;;;-5.85;84.84;97642.77;110342;1277;22187;-82
2023/12/17 02:10:09;;;;;;;4.60;2.30;;;;;;;-5.83;85.04;97640.30;110359;1277;22215;-82
2023/12/17 02:12:37;;;;;;;3.50;1.10;;;;;;;-5.76;85.27;97636.22;110357;1277;22126;-83
2023/12/17 02:15:06;;;;;;;4.30;1.50;;;;;;;-5.67;85.49;97627.14;110336;1277;22130;-82
2023/12/17 02:17:34;;;;;;;6.10;2.50;;;;;;;-5.58;85.40;97632.05;110362;1277;22645;-82
2023/12/17 02:20:03;;;;;;;6.20;3.10;;;;;;;-5.49;85.76;97635.16;110378;1277;22883;-82
2023/12/17 02:22:33;;;;;;;35.20;14.00;;;;;;;-5.40;85.73;97630.71;110373;1277;22885;-82
2023/12/17 02:25:02;;;;;;;32.90;13.30;;;;;;;-5.31;85.17;97626.42;110335;1277;22152;-82
2023/12/17 02:27:31;;;;;;;26.10;10.50;;;;;;;-5.33;83.98;97637.43;110366;1277;22184;-82
2023/12/17 02:29:59;;;;;;;23.10;9.50;;;;;;;-5.28;84.71;97644.17;110329;1277;22156;-82
2023/12/17 02:32:28;;;;;;;2.40;1.40;;;;;;;-5.21;84.79;97643.84;110326;1277;22137;-82
2023/12/17 02:34:56;;;;;;;1.90;0.90;;;;;;;-5.15;84.59;97637.73;110200;1277;22425;-82
2023/12/17 02:37:24;;;;;;;6.30;3.00;;;;;;;-5.18;84.25;97633.38;110214;1277;22157;-82
2023/12/17 02:39:52;;;;;;;30.40;14.10;;;;;;;-5.24;83.59;97635.52;110368;1277;23032;-82
2023/12/17 02:42:21;;;;;;;160.20;66.60;;;;;;;-5.38;82.95;97642.02;110296;1277;22180;-82
2023/12/17 02:44:50;;;;;;;126.20;55.30;;;;;;;-5.49;83.18;97645.30;110350;1277;22153;-82
2023/12/17 02:47:18;;;;;;;108.50;50.50;;;;;;;-5.50;83.66;97643.66;110359;1277;22301;-82
2023/12/17 02:49:46;;;;;;;62.40;28.20;;;;;;;-5.48;83.94;97636.64;110300;1277;22337;-82
2023/12/17 02:52:15;;;;;;;30.30;14.40;;;;;;;-5.47;84.15;97632.83;110296;1277;22296;-82
2023/12/17 02:54:43;;;;;;;45.90;21.30;;;;;;;-5.42;84.29;97633.63;110352;1277;22162;-81
2023/12/17 02:57:11;;;;;;;57.90;24.10;;;;;;;-5.40;83.78;97634.28;110355;1277;22227;-81
2023/12/17 02:59:40;;;;;;;40.40;17.40;;;;;;;-5.49;83.04;97633.48;110373;1277;22727;-82
2023/12/17 03:02:08;;;;;;;48.80;20.10;;;;;;;-5.63;83.25;97636.20;110367;1277;22120;-82
2023/12/17 03:04:37;;;;;;;60.30;26.00;;;;;;;-5.72;83.13;97631.58;110361;1277;22219;-81
2023/12/17 03:07:05;;;;;;;61.80;26.60;;;;;;;-5.82;83.46;97638.52;110312;1277;22119;-82
2023/12/17 03:09:33;;;;;;;83.20;37.80;;;;;;;-5.87;83.43;97637.48;110338;1277;22279;-82
2023/12/17 03:12:02;;;;;;;68.30;30.20;;;;;;;-5.89;83.78;97628.18;110273;1277;22902;-82
2023/12/17 03:14:31;;;;;;;43.90;20.60;;;;;;;-5.94;84.30;97628.33;110362;1277;22158;-82
2023/12/17 03:17:00;;;;;;;33.40;16.10;;;;;;;-5.94;84.91;97633.69;110336;1277;22140;-81
2023/12/17 03:19:28;;;;;;;43.30;19.10;;;;;;;-5.94;85.08;97639.65;110364;1277;22132;-82
2023/12/17 03:21:56;;;;;;;42.50;21.00;;;;;;;-5.94;84.90;97651.67;110342;1277;22147;-82
2023/12/17 03:24:24;;;;;;;50.10;22.40;;;;;;;-5.97;84.63;97647.15;110357;1277;22605;-82
2023/12/17 03:26:53;;;;;;;64.90;25.50;;;;;;;-5.97;84.75;97639.58;110343;1277;22256;-82
2023/12/17 03:29:21;;;;;;;38.90;18.70;;;;;;;-6.03;84.49;97627.66;110350;1277;22131;-82
2023/12/17 03:31:49;;;;;;;36.20;16.90;;;;;;;-6.11;84.88;97630.86;110361;1277;23125;-81
2023/12/17 03:34:17;;;;;;;37.30;16.30;;;;;;;-6.15;84.93;97630.48;110373;1277;22127;-82
2023/12/17 03:36:46;;;;;;;32.40;15.40;;;;;;;-6.19;85.12;97629.19;110311;1277;22136;-82
2023/12/17 03:39:14;;;;;;;44.70;20.10;;;;;;;-6.22;84.75;97626.04;110356;1262;22169;-82
2023/12/17 03:41:43;;;;;;;29.60;13.70;;;;;;;-6.20;84.94;97625.33;110348;1277;22141;-82
2023/12/17 03:44:11;;;;;;;42.80;20.40;;;;;;;-6.17;85.36;97628.10;110361;1277;22126;-82
2023/12/17 03:46:39;;;;;;;49.20;21.50;;;;;;;-6.17;85.35;97626.42;110353;1277;22172;-82
2023/12/17 03:49:07;;;;;;;57.80;22.10;;;;;;;-6.17;85.16;97627.12;110358;1277;22140;-82
2023/12/17 03:51:36;;;;;;;201.40;66.20;;;;;;;-6.16;85.20;97631.29;110297;1277;22113;-82
2023/12/17 03:54:04;;;;;;;17.10;8.00;;;;;;;-6.14;85.22;97636.24;110366;1277;22137;-82
2023/12/17 03:56:32;;;;;;;15.40;7.30;;;;;;;-6.09;85.00;97636.96;110333;1277;22202;-82
2023/12/17 03:59:00;;;;;;;74.70;30.00;;;;;;;-6.01;85.31;97626.45;110369;1277;23055;-82
2023/12/17 04:01:28;;;;;;;40.90;17.50;;;;;;;-6.02;85.37;97610.13;110352;1277;22935;-82
2023/12/17 04:03:57;;;;;;;58.90;23.70;;;;;;;-6.00;85.57;97606.63;110323;1277;22132;-82
2023/12/17 04:06:25;;;;;;;45.60;22.20;;;;;;;-5.95;85.57;97617.83;110338;1277;22916;-82
2023/12/17 04:08:54;;;;;;;53.10;22.80;;;;;;;-5.87;85.78;97618.42;110366;1277;22204;-82
2023/12/17 04:11:23;;;;;;;55.00;22.90;;;;;;;-5.83;85.38;97611.33;110330;1277;22902;-82
2023/12/17 04:13:51;;;;;;;48.40;21.70;;;;;;;-5.79;85.19;97619.21;110355;1277;22148;-82
2023/12/17 04:16:19;;;;;;;45.60;19.30;;;;;;;-5.70;85.38;97625.53;110281;1277;22187;-82
2023/12/17 04:18:47;;;;;;;42.10;18.40;;;;;;;-5.62;85.37;97618.06;110343;1277;22131;-82
2023/12/17 04:21:15;;;;;;;40.90;19.10;;;;;;;-5.58;84.97;97614.06;110351;1277;23015;-82
2023/12/17 04:23:44;;;;;;;34.30;17.40;;;;;;;-5.50;85.31;97604.29;110361;1277;22146;-82
2023/12/17 04:26:13;;;;;;;40.70;18.80;;;;;;;-5.47;84.62;97600.04;110330;1277;22439;-81
2023/12/17 04:28:41;;;;;;;15.40;8.50;;;;;;;-5.48;84.32;97600.27;110314;1277;22115;-82
2023/12/17 04:31:10;;;;;;;24.40;11.60;;;;;;;-5.46;84.51;97608.52;110371;1277;22160;-81
2023/12/17 04:33:38;;;;;;;29.40;15.40;;;;;;;-5.47;84.52;97614.10;110285;1277;22172;-82
2023/12/17 04:36:08;;;;;;;33.00;15.20;;;;;;;-5.45;84.23;97615.40;110383;1277;22099;-82
2023/12/17 04:38:36;;;;;;;27.00;12.10;;;;;;;-5.38;84.80;97619.08;110365;1277;22877;-82
2023/12/17 04:41:04;;;;;;;33.20;16.00;;;;;;;-5.36;83.78;97615.05;110348;1277;22340;-81
2023/12/17 04:43:33;;;;;;;37.80;16.60;;;;;;;-5.37;83.70;97610.35;109930;1262;566920;-82
2023/12/17 04:46:02;;;;;;;50.20;23.20;;;;;;;-5.42;83.22;97606.59;110356;1277;22426;-82
2023/12/17 04:48:30;;;;;;;37.60;19.70;;;;;;;-5.41;83.66;97601.80;110337;1277;22199;-82
2023/12/17 04:50:59;;;;;;;47.00;21.90;;;;;;;-5.37;83.83;97608.94;110368;1277;22162;-82
2023/12/17 04:53:27;;;;;;;48.80;23.20;;;;;;;-5.40;83.13;97609.63;110363;1277;22134;-82
2023/12/17 04:55:55;;;;;;;37.80;19.40;;;;;;;-5.48;82.99;97605.57;110273;1277;22162;-81
2023/12/17 04:58:24;;;;;;;18.80;9.30;;;;;;;-5.49;83.43;97610.49;110365;1261;22955;-82
2023/12/17 05:00:53;;;;;;;17.80;8.70;;;;;;;-5.45;83.71;97612.33;110345;1270;22153;-82
2023/12/17 05:03:21;;;;;;;22.00;10.50;;;;;;;-5.51;83.18;97622.83;110334;1277;22129;-82
2023/12/17 05:05:49;;;;;;;23.10;10.70;;;;;;;-5.45;83.70;97621.44;110354;1277;22118;-82
2023/12/17 05:08:18;;;;;;;16.00;8.50;;;;;;;-5.41;83.49;97625.47;110344;1277;22181;-82
2023/12/17 05:10:46;;;;;;;9.30;4.70;;;;;;;-5.44;83.36;97621.51;110352;1277;22222;-82
2023/12/17 05:13:15;;;;;;;24.00;12.00;;;;;;;-5.40;83.49;97619.95;110355;1277;22129;-82
2023/12/17 05:15:43;;;;;;;127.30;54.70;;;;;;;-5.48;83.40;97616.95;110364;1277;22972;-82
2023/12/17 05:18:11;;;;;;;85.30;41.80;;;;;;;-5.50;83.47;97614.05;110339;1276;22786;-82
2023/12/17 05:20:40;;;;;;;54.40;25.70;;;;;;;-5.53;83.43;97607.66;110358;1266;22712;-82
2023/12/17 05:23:10;;;;;;;49.00;23.30;;;;;;;-5.48;83.66;97610.25;110268;1277;22282;-82
2023/12/17 05:25:39;;;;;;;39.40;17.30;;;;;;;-5.44;83.98;97607.10;110365;1277;22906;-81
2023/12/17 05:28:09;;;;;;;45.20;20.60;;;;;;;-5.44;83.43;97595.65;110352;1277;22131;-82
2023/12/17 05:30:37;;;;;;;37.90;17.40;;;;;;;-5.41;83.50;97591.84;110333;1277;22199;-81
2023/12/17 05:33:07;;;;;;;37.50;18.30;;;;;;;-5.41;83.55;97594.27;110297;1277;22150;-82
2023/12/17 05:35:35;;;;;;;44.80;22.30;;;;;;;-5.38;83.69;97603.20;110364;1277;22829;-82
2023/12/17 05:38:04;;;;;;;52.90;23.60;;;;;;;-5.37;83.50;97611.42;110274;1277;22131;-81
2023/12/17 05:40:32;;;;;;;42.90;19.50;;;;;;;-5.35;83.43;97623.02;110333;1277;22250;-81
2023/12/17 05:43:00;;;;;;;9.70;4.90;;;;;;;-5.48;82.47;97635.92;110350;1277;22609;-82
2023/12/17 05:45:30;;;;;;;11.30;5.60;;;;;;;-5.42;83.74;97636.08;110328;1277;22142;-82
2023/12/17 05:47:58;;;;;;;8.10;3.80;;;;;;;-5.39;83.64;97635.43;110342;1277;22285;-82
2023/12/17 05:50:27;;;;;;;51.70;24.30;;;;;;;-5.41;83.67;97621.87;110310;1277;22945;-82
2023/12/17 05:52:55;;;;;;;53.20;27.00;;;;;;;-5.44;83.44;97609.36;110334;1277;22959;-81
2023/12/17 05:55:23;;;;;;;65.80;33.60;;;;;;;-5.54;83.22;97620.44;110334;1277;22138;-81
2023/12/17 05:57:52;;;;;;;60.80;31.10;;;;;;;-5.49;83.75;97620.14;110339;1277;22207;-81
2023/12/17 06:00:20;;;;;;;45.60;22.50;;;;;;;-5.43;83.74;97626.54;110331;1277;22303;-81
2023/12/17 06:02:48;;;;;;;56.20;27.60;;;;;;;-5.41;83.62;97628.75;110328;1277;22301;-81
2023/12/17 06:05:17;;;;;;;39.90;22.20;;;;;;;-5.46;82.86;97622.06;110349;1277;22094;-81
2023/12/17 06:07:45;;;;;;;20.80;10.80;;;;;;;-5.49;83.00;97629.86;110351;1277;22115;-82
2023/12/17 06:10:13;;;;;;;19.50;9.90;;;;;;;-5.43;83.39;97626.73;110349;1277;22122;-81
2023/12/17 06:12:42;;;;;;;28.00;14.80;;;;;;;-5.39;83.80;97624.41;110331;1277;22230;-82
2023/12/17 06:15:11;;;;;;;25.70;13.70;;;;;;;-5.32;83.62;97622.55;110348;1277;22111;-81
2023/12/17 06:17:41;;;;;;;38.90;20.10;;;;;;;-5.37;82.95;97616.71;110334;1277;22288;-81
2023/12/17 06:20:10;;;;;;;33.10;16.90;;;;;;;-5.35;83.31;97610.02;110353;1277;22149;-81
2023/12/17 06:22:38;;;;;;;31.30;16.90;;;;;;;-5.34;83.13;97618.81;110323;1277;22118;-81
2023/12/17 06:25:06;;;;;;;32.30;15.30;;;;;;;-5.36;83.05;97620.36;110340;1277;22119;-82
2023/12/17 06:27:36;;;;;;;24.40;13.40;;;;;;;-5.30;83.38;97620.84;110309;1277;22140;-81
2023/12/17 06:30:05;;;;;;;20.70;12.10;;;;;;;-5.27;83.31;97618.83;110328;1277;22307;-81
2023/12/17 06:32:34;;;;;;;24.30;15.00;;;;;;;-5.25;83.36;97623.31;110352;1277;22172;-82
2023/12/17 06:35:02;;;;;;;36.50;17.00;;;;;;;-5.19;83.54;97637.43;110328;1277;22147;-81
2023/12/17 06:37:31;;;;;;;35.70;18.00;;;;;;;-5.11;83.52;97648.82;110350;1277;22193;-82
2023/12/17 06:39:59;;;;;;;100.00;35.70;;;;;;;-5.10;83.14;97656.14;110275;1277;22232;-82
2023/12/17 06:42:27;;;;;;;40.60;17.80;;;;;;;-5.05;83.15;97655.96;110304;1277;22154;-81
2023/12/17 06:44:56;;;;;;;46.70;21.10;;;;;;;-4.98;83.46;97655.62;110304;1277;22879;-82
2023/12/17 06:47:24;;;;;;;18.10;9.60;;;;;;;-4.93;83.87;97649.81;110302;1277;23083;-81
2023/12/17 06:49:56;;;;;;;123.40;58.00;;;;;;;-4.91;83.88;97639.88;110308;1277;22200;-81
2023/12/17 06:52:24;;;;;;;117.50;58.10;;;;;;;-4.85;83.78;97642.73;110321;1277;22132;-81
2023/12/17 06:54:52;;;;;;;77.70;40.40;;;;;;;-4.76;83.83;97651.09;110317;1277;22744;-81
2023/12/17 06:57:20;;;;;;;99.10;49.50;;;;;;;-4.70;83.14;97654.27;110291;1277;22165;-82
2023/12/17 06:59:49;;;;;;;100.20;48.90;;;;;;;-4.64;83.66;97661.55;110311;1277;22933;-81
2023/12/17 07:02:17;;;;;;;80.90;42.60;;;;;;;-4.46;83.83;97655.84;110255;1277;22132;-81
2023/12/17 07:04:45;;;;;;;96.00;48.30;;;;;;;-4.29;84.06;97658.73;110355;1277;22276;-82
2023/12/17 07:07:13;;;;;;;96.90;48.30;;;;;;;-4.14;83.87;97661.05;110342;1277;22127;-81
2023/12/17 07:09:41;;;;;;;75.70;35.60;;;;;;;-4.04;83.49;97654.50;110300;1277;22138;-81
2023/12/17 07:12:10;;;;;;;83.50;42.50;;;;;;;-4.04;82.56;97648.98;110298;1277;22329;-82
2023/12/17 07:14:39;;;;;;;82.30;42.70;;;;;;;-4.05;82.73;97664.74;110344;1277;22146;-82
2023/12/17 07:17:07;;;;;;;64.90;33.10;;;;;;;-3.94;83.30;97672.09;110263;1277;22323;-81
2023/12/17 07:19:36;;;;;;;51.80;27.70;;;;;;;-3.79;83.34;97678.25;110321;1277;22172;-82
2023/12/17 07:22:04;;;;;;;57.40;27.90;;;;;;;-3.63;83.34;97669.91;110303;1277;22158;-82
2023/12/17 07:24:33;;;;;;;56.40;27.00;;;;;;;-3.55;82.81;97677.01;110321;1277;22242;-82
2023/12/17 07:27:01;;;;;;;48.90;25.10;;;;;;;-3.45;83.17;97670.62;110302;1277;22174;-82
2023/12/17 07:29:29;;;;;;;42.80;20.70;;;;;;;-3.36;83.02;97660.23;110289;1277;22294;-82
2023/12/17 07:31:57;;;;;;;31.90;17.10;;;;;;;-3.24;83.33;97649.19;110321;1277;22117;-82
2023/12/17 07:34:25;;;;;;;37.80;20.80;;;;;;;-3.14;82.81;97641.77;110322;1277;22353;-82
2023/12/17 07:36:54;;;;;;;65.50;33.80;;;;;;;-3.08;82.75;97632.19;110329;1277;22144;-83
2023/12/17 07:39:22;;;;;;;82.00;37.20;;;;;;;-2.96;82.96;97619.58;110322;1277;22130;-83
2023/12/17 07:41:50;;;;;;;47.60;24.80;;;;;;;-2.91;82.40;97607.45;110298;1277;22196;-82
2023/12/17 07:44:18;;;;;;;40.30;22.00;;;;;;;-2.87;82.44;97596.40;110323;1277;22297;-82
2023/12/17 07:46:47;;;;;;;45.80;27.00;;;;;;;-2.83;82.32;97598.04;110233;1277;22343;-83
2023/12/17 07:49:15;;;;;;;44.70;23.40;;;;;;;-2.80;82.57;97592.52;110304;1277;22118;-83
2023/12/17 07:51:44;;;;;;;51.20;27.50;;;;;;;-2.82;83.27;97578.29;110291;1277;22869;-82
2023/12/17 07:54:12;;;;;;;43.50;23.40;;;;;;;-2.78;83.43;97581.04;110309;1277;22118;-83
2023/12/17 07:56:41;;;;;;;40.40;23.20;;;;;;;-2.73;83.45;97573.14;110300;1277;22218;-83
2023/12/17 07:59:09;;;;;;;43.60;23.70;;;;;;;-2.69;83.60;97564.98;110305;1277;22883;-83
2023/12/17 08:01:37;;;;;;;37.90;20.40;;;;;;;-2.61;83.77;97568.77;110286;1277;22133;-82
2023/12/17 08:04:05;;;;;;;41.90;21.10;;;;;;;-2.52;83.55;97575.67;110268;1277;22164;-83
2023/12/17 08:06:34;;;;;;;34.80;19.50;;;;;;;-2.46;83.33;97579.38;110283;1274;22289;-83
2023/12/17 08:09:04;;;;;;;48.50;25.10;;;;;;;-2.36;83.52;97577.39;110307;1270;22799;-82
2023/12/17 08:11:34;;;;;;;47.20;24.90;;;;;;;-2.26;83.55;97578.90;110291;1277;22313;-82
2023/12/17 08:14:03;;;;;;;40.60;23.10;;;;;;;-2.15;83.56;97584.05;110265;1277;22133;-83
2023/12/17 08:16:31;;;;;;;56.80;31.20;;;;;;;-2.02;83.89;97596.10;110294;1277;22878;-82
2023/12/17 08:19:00;;;;;;;60.60;33.50;;;;;;;-1.90;83.75;97591.98;110302;1277;22120;-82
2023/12/17 08:21:28;;;;;;;91.70;49.40;;;;;;;-1.74;84.40;97587.09;110310;1277;22196;-82
2023/12/17 08:23:56;;;;;;;77.50;41.10;;;;;;;-1.57;84.18;97590.91;110292;1277;22190;-82
2023/12/17 08:26:24;;;;;;;66.80;35.60;;;;;;;-1.38;84.15;97595.78;110321;1274;22884;-81
2023/12/17 08:28:53;;;;;;;59.80;30.90;;;;;;;-1.20;84.01;97596.02;110277;1277;22416;-81
2023/12/17 08:31:22;;;;;;;52.30;27.00;;;;;;;-1.01;83.91;97606.41;110309;1277;22129;-81
2023/12/17 08:33:52;;;;;;;43.80;22.50;;;;;;;-0.83;83.85;97613.88;110302;1277;22140;-81
2023/12/17 08:36:25;;;;;;;63.50;34.80;;;;;;;-0.64;83.58;97621.54;110297;1277;22221;-81
2023/12/17 08:38:54;;;;;;;74.00;45.90;;;;;;;-0.49;83.52;97627.23;110298;1277;22190;-81
2023/12/17 08:41:22;;;;;;;46.70;24.60;;;;;;;-0.37;83.00;97618.94;110318;1277;22232;-81
2023/12/17 08:43:51;;;;;;;52.50;28.00;;;;;;;-0.20;82.53;97618.67;110284;1277;22144;-80
2023/12/17 08:46:19;;;;;;;42.30;25.30;;;;;;;-0.07;82.18;97618.31;110286;1277;22136;-80
2023/12/17 08:48:47;;;;;;;48.70;29.10;;;;;;;0.04;81.63;97615.31;110258;1277;22291;-80
2023/12/17 08:51:16;;;;;;;48.60;27.60;;;;;;;0.19;81.80;97603.11;110296;1277;22910;-80
2023/12/17 08:53:45;;;;;;;51.10;28.50;;;;;;;0.34;81.88;97606.16;110295;1277;22364;-80
2023/12/17 08:56:13;;;;;;;33.00;21.10;;;;;;;0.47;81.29;97604.23;110313;1277;22599;-80
2023/12/17 08:58:41;;;;;;;21.60;14.20;;;;;;;0.53;80.46;97609.93;110246;1277;23023;-80
2023/12/17 09:01:10;;;;;;;54.00;28.00;;;;;;;0.56;79.59;97600.05;110307;1277;22107;-79
2023/12/17 09:03:38;;;;;;;109.10;54.50;;;;;;;0.65;78.96;97602.11;110323;1277;22129;-79
2023/12/17 09:06:07;;;;;;;114.70;56.20;;;;;;;0.76;79.35;97609.58;110299;1277;22101;-79
2023/12/17 09:08:35;;;;;;;33.30;19.40;;;;;;;0.89;79.99;97605.94;110308;1274;22136;-80
2023/12/17 09:11:03;;;;;;;18.50;10.80;;;;;;;1.07;79.98;97615.13;110301;1277;22169;-79
2023/12/17 09:13:31;;;;;;;15.20;9.00;;;;;;;1.23;79.26;97617.50;110300;1277;22140;-79
2023/12/17 09:16:00;;;;;;;12.90;5.80;;;;;;;1.40;78.81;97614.86;110269;1277;22183;-79
2023/12/17 09:18:28;;;;;;;15.60;8.80;;;;;;;1.58;77.86;97616.11;110309;1277;22182;-79
2023/12/17 09:20:56;;;;;;;15.50;9.60;;;;;;;1.72;77.92;97612.09;110280;1277;22180;-79
2023/12/17 09:23:25;;;;;;;14.40;9.20;;;;;;;1.81;77.17;97612.38;110288;1274;22184;-79
2023/12/17 09:25:53;;;;;;;18.80;9.90;;;;;;;1.92;77.50;97611.65;110301;1277;22144;-79
2023/12/17 09:28:21;;;;;;;10.80;4.90;;;;;;;2.02;76.86;97602.05;110294;1277;22168;-80
2023/12/17 09:30:49;;;;;;;10.60;5.50;;;;;;;2.13;75.91;97592.55;110297;1277;22124;-80
2023/12/17 09:33:21;;;;;;;6.70;3.40;;;;;;;2.25;74.97;97588.72;110284;1277;22330;-79
2023/12/17 09:35:49;;;;;;;10.20;3.80;;;;;;;2.44;76.10;97580.38;110234;1277;22118;-79
2023/12/17 09:38:18;;;;;;;9.40;4.10;;;;;;;2.61;76.43;97569.66;110284;1277;22173;-79
2023/12/17 09:40:48;;;;;;;11.50;7.00;;;;;;;2.77;76.11;97568.98;110210;1277;22133;-79
2023/12/17 09:43:16;;;;;;;10.20;5.00;;;;;;;2.91;75.33;97561.40;110273;1277;22279;-79
2023/12/17 09:45:45;;;;;;;10.30;5.40;;;;;;;3.08;75.21;97556.72;110304;1277;22830;-79
2023/12/17 09:48:13;;;;;;;5.60;2.50;;;;;;;3.26;72.18;97554.17;110312;1277;22867;-79
2023/12/17 09:50:42;;;;;;;7.00;3.10;;;;;;;3.42;71.77;97543.70;110277;1277;22141;-79
2023/12/17 09:53:11;;;;;;;6.20;2.70;;;;;;;3.59;73.27;97533.92;110289;1277;22143;-79
2023/12/17 09:55:39;;;;;;;7.50;3.30;;;;;;;3.74;71.08;97530.34;110264;1277;22126;-79
2023/12/17 09:58:07;;;;;;;10.00;5.50;;;;;;;3.87;69.19;97520.21;110282;1277;22352;-80
2023/12/17 10:00:35;;;;;;;4.70;1.90;;;;;;;3.98;67.45;97515.05;110298;1277;22141;-79
2023/12/17 10:03:05;;;;;;;4.10;1.80;;;;;;;4.07;68.09;97509.66;110253;1277;22113;-80
2023/12/17 10:05:34;;;;;;;3.70;1.70;;;;;;;4.17;66.81;97503.38;110266;1277;22301;-79
2023/12/17 10:08:02;;;;;;;3.30;2.10;;;;;;;4.26;66.55;97507.05;110287;1277;22263;-79
2023/12/17 10:10:31;;;;;;;6.80;3.00;;;;;;;4.38;66.20;97508.84;110303;1277;22977;-80
2023/12/17 10:12:59;;;;;;;4.40;1.80;;;;;;;4.51;66.47;97509.00;110260;1277;22174;-79
2023/12/17 10:15:35;;;;;;;6.40;2.70;;;;;;;4.66;66.33;97500.81;110268;1277;22156;-79
2023/12/17 10:18:04;;;;;;;4.50;1.90;;;;;;;4.81;66.53;97505.68;110278;1277;22126;-80
2023/12/17 10:20:32;;;;;;;4.50;1.90;;;;;;;4.93;65.13;97501.73;110299;1277;22119;-79
2023/12/17 10:23:03;;;;;;;2.90;2.20;;;;;;;4.99;63.53;97498.48;110284;1277;22109;-79
2023/12/17 10:25:31;;;;;;;15.70;11.30;;;;;;;5.10;64.34;97510.83;110257;1277;22884;-80
2023/12/17 10:28:00;;;;;;;8.60;3.70;;;;;;;5.09;63.82;97504.55;110302;1277;22175;-79
2023/12/17 10:30:31;;;;;;;8.70;4.90;;;;;;;5.20;65.27;97509.98;110207;1277;22136;-80
2023/12/17 10:33:01;;;;;;;7.60;4.40;;;;;;;5.27;64.78;97513.86;110213;1277;22941;-80
2023/12/17 10:35:30;;;;;;;9.00;4.60;;;;;;;5.39;64.92;97519.48;110315;1277;22205;-79
2023/12/17 10:38:05;;;;;;;8.30;3.70;;;;;;;5.42;63.70;97515.21;110286;1277;22183;-79
2023/12/17 10:40:36;;;;;;;5.20;2.70;;;;;;;5.44;62.75;97513.35;110285;1277;22205;-79
2023/12/17 10:43:05;;;;;;;7.80;3.80;;;;;;;5.50;63.55;97512.50;110253;1277;22127;-79
2023/12/17 10:45:34;;;;;;;7.20;4.00;;;;;;;5.43;62.82;97519.80;110272;1277;22144;-80
2023/12/17 10:48:04;;;;;;;7.10;4.00;;;;;;;5.39;63.57;97522.44;110218;1277;22150;-79
2023/12/17 10:50:33;;;;;;;6.60;3.00;;;;;;;5.29;63.55;97529.10;110309;1277;22365;-80
2023/12/17 10:53:02;;;;;;;5.10;2.60;;;;;;;5.23;63.51;97522.61;110292;1277;22755;-80
2023/12/17 10:55:31;;;;;;;5.80;2.80;;;;;;;5.16;63.90;97533.23;110310;1277;22135;-80
2023/12/17 10:58:03;;;;;;;10.90;4.50;;;;;;;5.14;64.31;97530.89;110287;1277;22964;-80
2023/12/17 11:00:33;;;;;;;4.70;2.10;;;;;;;5.17;63.76;97527.48;110280;1277;22140;-80
2023/12/17 11:03:05;;;;;;;6.30;2.60;;;;;;;5.22;63.32;97519.80;110304;1277;22766;-80
2023/12/17 11:05:34;;;;;;;6.80;3.00;;;;;;;5.28;62.90;97503.58;110231;1277;22849;-80
2023/12/17 11:08:02;;;;;;;6.70;2.70;;;;;;;5.36;63.14;97501.25;110321;1277;22169;-79
2023/12/17 11:10:37;;;;;;;6.60;3.20;;;;;;;5.43;62.32;97497.27;110254;1277;22141;-80
2023/12/17 11:13:06;;;;;;;10.70;4.30;;;;;;;5.35;62.11;97495.63;110287;1277;22193;-79
2023/12/17 11:15:34;;;;;;;9.10;4.00;;;;;;;5.41;63.35;97495.45;110282;1277;22208;-80
2023/12/17 11:18:03;;;;;;;28.20;9.60;;;;;;;5.42;62.74;97498.98;110295;1277;22091;-80
2023/12/17 11:20:35;;;;;;;5.80;2.90;;;;;;;5.48;62.81;97495.14;110302;1277;22136;-80
2023/12/17 11:23:05;;;;;;;7.90;3.00;;;;;;;5.53;62.02;97483.08;110291;1268;22210;-80